Terminal Aerodrome Forecast
Issued by NWS Melbourne, FL

Home | Current Version | Previous Version | Text Only | Print | Product List | Glossary On
Versions: 1 2 3 4 5 6 7 8 9 10 11 12 13 14 15 16
000
FTUS42 KMLB 221602 AAB
TAFDAB
TAF AMD
KDAB 221602Z 2216/2312 16010KT P6SM VCSH SCT015 BKN040 BKN250
      TEMPO 2216/2218 3SM -TSRA BKN025CB
     FM222200 10008KT P6SM SCT030 SCT050 BKN250=

USA.gov is the U.S. government's official web portal to all federal, state and local government web resources and services.